sensor_id;sensor_type;location;lat;lon;timestamp;temperature;humidity
16823;DHT22;8528;49.976;11.858;2022-10-16T00:21:47;13.50;99.90
16823;DHT22;8528;49.976;11.858;2022-10-16T00:24:14;13.50;99.90
16823;DHT22;8528;49.976;11.858;2022-10-16T00:26:41;13.50;99.90
16823;DHT22;8528;49.976;11.858;2022-10-16T00:29:08;13.50;99.90
16823;DHT22;8528;49.976;11.858;2022-10-16T00:31:35;13.50;99.90
16823;DHT22;8528;49.976;11.858;2022-10-16T00:34:02;13.50;99.90
16823;DHT22;8528;49.976;11.858;2022-10-16T00:36:32;13.40;99.90
16823;DHT22;8528;49.976;11.858;2022-10-16T00:38:59;13.40;99.90
16823;DHT22;8528;49.976;11.858;2022-10-16T00:41:29;13.40;99.90
16823;DHT22;8528;49.976;11.858;2022-10-16T00:44:02;13.40;99.90
16823;DHT22;8528;49.976;11.858;2022-10-16T00:46:37;13.40;99.90
16823;DHT22;8528;49.976;11.858;2022-10-16T00:49:11;13.40;99.90
16823;DHT22;8528;49.976;11.858;2022-10-16T00:51:44;13.50;99.90
16823;DHT22;8528;49.976;11.858;2022-10-16T00:54:27;13.50;99.90
16823;DHT22;8528;49.976;11.858;2022-10-16T00:56:58;13.50;99.90
16823;DHT22;8528;49.976;11.858;2022-10-16T00:59:30;13.60;99.90
16823;DHT22;8528;49.976;11.858;2022-10-16T01:02:00;13.60;99.90
16823;DHT22;8528;49.976;11.858;2022-10-16T01:04:31;13.60;99.90
16823;DHT22;8528;49.976;11.858;2022-10-16T01:09:49;13.50;99.90
16823;DHT22;8528;49.976;11.858;2022-10-16T01:12:40;13.50;99.90
16823;DHT22;8528;49.976;11.858;2022-10-16T01:20:52;13.50;99.90
16823;DHT22;8528;49.976;11.858;2022-10-16T01:29:26;13.60;99.90
16823;DHT22;8528;49.976;11.858;2022-10-16T01:32:10;13.60;99.90
16823;DHT22;8528;49.976;11.858;2022-10-16T01:34:52;13.60;99.90
16823;DHT22;8528;49.976;11.858;2022-10-16T01:37:35;13.60;99.90
16823;DHT22;8528;49.976;11.858;2022-10-16T01:40:08;13.70;99.90
16823;DHT22;8528;49.976;11.858;2022-10-16T01:42:40;13.60;99.90
16823;DHT22;8528;49.976;11.858;2022-10-16T01:45:11;13.70;99.90
16823;DHT22;8528;49.976;11.858;2022-10-16T01:47:40;13.70;99.90
16823;DHT22;8528;49.976;11.858;2022-10-16T01:50:09;13.70;99.90
16823;DHT22;8528;49.976;11.858;2022-10-16T01:52:39;13.80;99.90
16823;DHT22;8528;49.976;11.858;2022-10-16T01:55:10;13.80;99.90
16823;DHT22;8528;49.976;11.858;2022-10-16T01:57:41;13.80;99.90
16823;DHT22;8528;49.976;11.858;2022-10-16T02:00:11;13.80;99.90
16823;DHT22;8528;49.976;11.858;2022-10-16T02:02:44;13.70;99.90
16823;DHT22;8528;49.976;11.858;2022-10-16T02:07:52;13.70;99.90
16823;DHT22;8528;49.976;11.858;2022-10-16T02:10:20;13.70;99.90
16823;DHT22;8528;49.976;11.858;2022-10-16T02:12:56;13.70;99.90
16823;DHT22;8528;49.976;11.858;2022-10-16T02:15:28;13.70;99.90
16823;DHT22;8528;49.976;11.858;2022-10-16T02:17:57;13.70;99.90
16823;DHT22;8528;49.976;11.858;2022-10-16T02:20:27;13.70;99.90
16823;DHT22;8528;49.976;11.858;2022-10-16T02:22:56;13.60;99.90
16823;DHT22;8528;49.976;11.858;2022-10-16T02:25:37;13.70;99.90
16823;DHT22;8528;49.976;11.858;2022-10-16T02:28:33;13.70;99.90
16823;DHT22;8528;49.976;11.858;2022-10-16T02:31:05;13.70;99.90
16823;DHT22;8528;49.976;11.858;2022-10-16T02:33:33;13.70;99.90
16823;DHT22;8528;49.976;11.858;2022-10-16T02:36:03;13.70;99.90
16823;DHT22;8528;49.976;11.858;2022-10-16T02:38:30;13.70;99.90
16823;DHT22;8528;49.976;11.858;2022-10-16T02:40:58;13.70;99.90
16823;DHT22;8528;49.976;11.858;2022-10-16T02:43:25;13.70;99.90
16823;DHT22;8528;49.976;11.858;2022-10-16T02:45:52;13.80;99.90
16823;DHT22;8528;49.976;11.858;2022-10-16T02:48:19;13.80;99.90
16823;DHT22;8528;49.976;11.858;2022-10-16T02:50:46;13.80;99.90
16823;DHT22;8528;49.976;11.858;2022-10-16T02:53:13;13.80;99.90
16823;DHT22;8528;49.976;11.858;2022-10-16T02:55:41;13.80;99.90
16823;DHT22;8528;49.976;11.858;2022-10-16T02:58:08;13.90;99.90
16823;DHT22;8528;49.976;11.858;2022-10-16T03:00:35;13.80;99.90
16823;DHT22;8528;49.976;11.858;2022-10-16T03:03:02;13.80;99.90
16823;DHT22;8528;49.976;11.858;2022-10-16T03:05:28;13.80;99.90
16823;DHT22;8528;49.976;11.858;2022-10-16T03:07:56;13.80;99.90
16823;DHT22;8528;49.976;11.858;2022-10-16T03:10:22;13.80;99.90
16823;DHT22;8528;49.976;11.858;2022-10-16T03:12:49;13.70;99.90
16823;DHT22;8528;49.976;11.858;2022-10-16T03:15:16;13.70;99.90
16823;DHT22;8528;49.976;11.858;2022-10-16T03:17:42;13.70;99.90
16823;DHT22;8528;49.976;11.858;2022-10-16T03:20:10;13.70;99.90
16823;DHT22;8528;49.976;11.858;2022-10-16T03:22:37;13.70;99.90
16823;DHT22;8528;49.976;11.858;2022-10-16T03:25:04;13.70;99.90
16823;DHT22;8528;49.976;11.858;2022-10-16T03:27:35;13.60;99.90
16823;DHT22;8528;49.976;11.858;2022-10-16T03:30:02;13.60;99.90
16823;DHT22;8528;49.976;11.858;2022-10-16T03:32:29;13.60;99.90
16823;DHT22;8528;49.976;11.858;2022-10-16T03:34:56;13.60;99.90
16823;DHT22;8528;49.976;11.858;2022-10-16T03:37:25;13.60;99.90
16823;DHT22;8528;49.976;11.858;2022-10-16T03:39:52;13.60;99.90
16823;DHT22;8528;49.976;11.858;2022-10-16T03:42:21;13.60;99.90
16823;DHT22;8528;49.976;11.858;2022-10-16T03:44:49;13.50;99.90
16823;DHT22;8528;49.976;11.858;2022-10-16T03:47:16;13.50;99.90
16823;DHT22;8528;49.976;11.858;2022-10-16T03:49:47;13.50;99.90
16823;DHT22;8528;49.976;11.858;2022-10-16T03:52:15;13.50;99.90
16823;DHT22;8528;49.976;11.858;2022-10-16T03:54:42;13.50;99.90
16823;DHT22;8528;49.976;11.858;2022-10-16T03:57:08;13.50;99.90
16823;DHT22;8528;49.976;11.858;2022-10-16T03:59:35;13.50;99.90
16823;DHT22;8528;49.976;11.858;2022-10-16T04:02:02;13.50;99.90
16823;DHT22;8528;49.976;11.858;2022-10-16T04:04:29;13.50;99.90
16823;DHT22;8528;49.976;11.858;2022-10-16T04:06:58;13.50;99.90
16823;DHT22;8528;49.976;11.858;2022-10-16T04:09:26;13.50;99.90
16823;DHT22;8528;49.976;11.858;2022-10-16T04:11:53;13.50;99.90
16823;DHT22;8528;49.976;11.858;2022-10-16T04:14:20;13.50;99.90
16823;DHT22;8528;49.976;11.858;2022-10-16T04:16:47;13.50;99.90
16823;DHT22;8528;49.976;11.858;2022-10-16T04:19:14;13.50;99.90
16823;DHT22;8528;49.976;11.858;2022-10-16T04:21:40;13.50;99.90
16823;DHT22;8528;49.976;11.858;2022-10-16T04:24:07;13.50;99.90
16823;DHT22;8528;49.976;11.858;2022-10-16T04:26:34;13.50;99.90
16823;DHT22;8528;49.976;11.858;2022-10-16T04:29:02;13.50;99.90
16823;DHT22;8528;49.976;11.858;2022-10-16T04:31:29;13.50;99.90
16823;DHT22;8528;49.976;11.858;2022-10-16T04:33:57;13.50;99.90
16823;DHT22;8528;49.976;11.858;2022-10-16T04:36:24;13.60;99.90
16823;DHT22;8528;49.976;11.858;2022-10-16T04:38:54;13.60;99.90
16823;DHT22;8528;49.976;11.858;2022-10-16T04:41:21;13.60;99.90
16823;DHT22;8528;49.976;11.858;2022-10-16T04:43:48;13.50;99.90
16823;DHT22;8528;49.976;11.858;2022-10-16T04:46:15;13.50;99.90
16823;DHT22;8528;49.976;11.858;2022-10-16T04:48:41;13.60;99.90
16823;DHT22;8528;49.976;11.858;2022-10-16T04:51:08;13.50;99.90
16823;DHT22;8528;49.976;11.858;2022-10-16T04:53:35;13.60;99.90
16823;DHT22;8528;49.976;11.858;2022-10-16T04:56:02;13.60;99.90
16823;DHT22;8528;49.976;11.858;2022-10-16T04:58:28;13.60;99.90
16823;DHT22;8528;49.976;11.858;2022-10-16T05:00:55;13.50;99.90
16823;DHT22;8528;49.976;11.858;2022-10-16T05:03:22;13.50;99.90
16823;DHT22;8528;49.976;11.858;2022-10-16T05:05:49;13.50;99.90
16823;DHT22;8528;49.976;11.858;2022-10-16T05:08:16;13.50;99.90
16823;DHT22;8528;49.976;11.858;2022-10-16T05:10:44;13.50;99.90
16823;DHT22;8528;49.976;11.858;2022-10-16T05:13:11;13.50;99.90
16823;DHT22;8528;49.976;11.858;2022-10-16T05:15:38;13.50;99.90
16823;DHT22;8528;49.976;11.858;2022-10-16T05:18:08;13.50;99.90
16823;DHT22;8528;49.976;11.858;2022-10-16T05:20:36;13.40;99.90
16823;DHT22;8528;49.976;11.858;2022-10-16T05:23:03;13.50;99.90
16823;DHT22;8528;49.976;11.858;2022-10-16T05:25:30;13.40;99.90
16823;DHT22;8528;49.976;11.858;2022-10-16T05:27:57;13.40;99.90
16823;DHT22;8528;49.976;11.858;2022-10-16T05:30:23;13.50;99.90
16823;DHT22;8528;49.976;11.858;2022-10-16T05:32:50;13.50;99.90
16823;DHT22;8528;49.976;11.858;2022-10-16T05:35:19;13.50;99.90
16823;DHT22;8528;49.976;11.858;2022-10-16T05:37:46;13.50;99.90
16823;DHT22;8528;49.976;11.858;2022-10-16T05:40:14;13.40;99.90
16823;DHT22;8528;49.976;11.858;2022-10-16T05:42:41;13.50;99.90
16823;DHT22;8528;49.976;11.858;2022-10-16T05:45:10;13.50;99.90
16823;DHT22;8528;49.976;11.858;2022-10-16T05:47:38;13.50;99.90
16823;DHT22;8528;49.976;11.858;2022-10-16T05:50:06;13.50;99.90
16823;DHT22;8528;49.976;11.858;2022-10-16T05:52:33;13.50;99.90
16823;DHT22;8528;49.976;11.858;2022-10-16T05:54:59;13.50;99.90
16823;DHT22;8528;49.976;11.858;2022-10-16T05:57:26;13.50;99.90
16823;DHT22;8528;49.976;11.858;2022-10-16T05:59:53;13.50;99.90
16823;DHT22;8528;49.976;11.858;2022-10-16T06:02:20;13.50;99.90
16823;DHT22;8528;49.976;11.858;2022-10-16T06:04:47;13.60;99.90
16823;DHT22;8528;49.976;11.858;2022-10-16T06:07:13;13.60;99.90
16823;DHT22;8528;49.976;11.858;2022-10-16T06:09:40;13.60;99.90
16823;DHT22;8528;49.976;11.858;2022-10-16T06:12:07;13.60;99.90
16823;DHT22;8528;49.976;11.858;2022-10-16T06:14:34;13.60;99.90
16823;DHT22;8528;49.976;11.858;2022-10-16T06:17:01;13.60;99.90
16823;DHT22;8528;49.976;11.858;2022-10-16T06:19:27;13.60;99.90
16823;DHT22;8528;49.976;11.858;2022-10-16T06:21:56;13.60;99.90
16823;DHT22;8528;49.976;11.858;2022-10-16T06:24:25;13.60;99.90
16823;DHT22;8528;49.976;11.858;2022-10-16T06:26:52;13.60;99.90
16823;DHT22;8528;49.976;11.858;2022-10-16T06:29:19;13.70;99.90
16823;DHT22;8528;49.976;11.858;2022-10-16T06:31:46;13.70;99.90
16823;DHT22;8528;49.976;11.858;2022-10-16T06:34:13;13.80;99.90
16823;DHT22;8528;49.976;11.858;2022-10-16T06:36:40;13.90;99.90
16823;DHT22;8528;49.976;11.858;2022-10-16T06:39:07;13.90;99.90
16823;DHT22;8528;49.976;11.858;2022-10-16T06:41:34;14.00;99.90
16823;DHT22;8528;49.976;11.858;2022-10-16T06:44:01;14.00;99.90
16823;DHT22;8528;49.976;11.858;2022-10-16T06:46:28;14.00;99.90
16823;DHT22;8528;49.976;11.858;2022-10-16T06:48:54;14.00;99.90
16823;DHT22;8528;49.976;11.858;2022-10-16T06:51:23;14.00;99.90
16823;DHT22;8528;49.976;11.858;2022-10-16T06:53:53;14.00;99.90
16823;DHT22;8528;49.976;11.858;2022-10-16T06:56:30;14.10;99.90
16823;DHT22;8528;49.976;11.858;2022-10-16T06:58:58;14.10;99.90
16823;DHT22;8528;49.976;11.858;2022-10-16T07:01:26;14.20;99.90
16823;DHT22;8528;49.976;11.858;2022-10-16T07:03:53;14.20;99.90
16823;DHT22;8528;49.976;11.858;2022-10-16T07:06:23;14.20;99.90
16823;DHT22;8528;49.976;11.858;2022-10-16T07:08:51;14.20;99.90
16823;DHT22;8528;49.976;11.858;2022-10-16T07:11:21;14.20;99.90
16823;DHT22;8528;49.976;11.858;2022-10-16T07:13:49;14.30;99.90
16823;DHT22;8528;49.976;11.858;2022-10-16T07:16:23;14.30;99.90
16823;DHT22;8528;49.976;11.858;2022-10-16T07:18:50;14.30;99.90
16823;DHT22;8528;49.976;11.858;2022-10-16T07:21:22;14.40;99.90
16823;DHT22;8528;49.976;11.858;2022-10-16T07:58:40;14.70;99.90
16823;DHT22;8528;49.976;11.858;2022-10-16T08:01:12;15.20;99.90
16823;DHT22;8528;49.976;11.858;2022-10-16T08:03:48;15.10;99.90
16823;DHT22;8528;49.976;11.858;2022-10-16T08:06:22;15.20;99.90
16823;DHT22;8528;49.976;11.858;2022-10-16T08:08:54;15.20;99.90
16823;DHT22;8528;49.976;11.858;2022-10-16T08:11:26;15.30;99.90
16823;DHT22;8528;49.976;11.858;2022-10-16T08:13:53;15.40;99.90
16823;DHT22;8528;49.976;11.858;2022-10-16T08:16:20;15.40;99.90
16823;DHT22;8528;49.976;11.858;2022-10-16T08:18:47;15.40;99.90
16823;DHT22;8528;49.976;11.858;2022-10-16T08:21:16;15.40;99.90
16823;DHT22;8528;49.976;11.858;2022-10-16T08:23:50;15.30;99.90
16823;DHT22;8528;49.976;11.858;2022-10-16T08:26:24;15.30;99.90
16823;DHT22;8528;49.976;11.858;2022-10-16T08:28:55;15.20;99.90
16823;DHT22;8528;49.976;11.858;2022-10-16T08:31:22;15.30;99.90
16823;DHT22;8528;49.976;11.858;2022-10-16T08:33:51;15.30;99.90
16823;DHT22;8528;49.976;11.858;2022-10-16T08:36:19;15.40;99.90
16823;DHT22;8528;49.976;11.858;2022-10-16T08:38:52;15.60;99.90
16823;DHT22;8528;49.976;11.858;2022-10-16T08:47:07;16.70;99.90
16823;DHT22;8528;49.976;11.858;2022-10-16T08:49:41;17.30;99.90
16823;DHT22;8528;49.976;11.858;2022-10-16T08:52:12;17.60;99.90
16823;DHT22;8528;49.976;11.858;2022-10-16T08:54:55;17.60;99.90
16823;DHT22;8528;49.976;11.858;2022-10-16T08:57:24;17.40;99.90
16823;DHT22;8528;49.976;11.858;2022-10-16T08:59:52;17.20;99.90
16823;DHT22;8528;49.976;11.858;2022-10-16T09:05:46;17.00;99.90
16823;DHT22;8528;49.976;11.858;2022-10-16T09:08:28;17.00;99.90
16823;DHT22;8528;49.976;11.858;2022-10-16T09:11:05;16.90;99.90
16823;DHT22;8528;49.976;11.858;2022-10-16T09:16:30;16.70;99.90
16823;DHT22;8528;49.976;11.858;2022-10-16T09:21:45;16.30;99.90
16823;DHT22;8528;49.976;11.858;2022-10-16T09:24:23;16.30;99.90
16823;DHT22;8528;49.976;11.858;2022-10-16T09:26:54;16.30;99.90
16823;DHT22;8528;49.976;11.858;2022-10-16T09:29:22;16.30;99.90
16823;DHT22;8528;49.976;11.858;2022-10-16T09:31:53;16.30;99.90
16823;DHT22;8528;49.976;11.858;2022-10-16T09:34:31;16.20;99.90
16823;DHT22;8528;49.976;11.858;2022-10-16T09:37:01;16.20;99.90
16823;DHT22;8528;49.976;11.858;2022-10-16T09:39:53;16.20;99.90
16823;DHT22;8528;49.976;11.858;2022-10-16T09:42:25;16.20;99.90
16823;DHT22;8528;49.976;11.858;2022-10-16T09:44:54;16.20;99.90
16823;DHT22;8528;49.976;11.858;2022-10-16T09:47:24;16.30;99.90
16823;DHT22;8528;49.976;11.858;2022-10-16T09:52:22;16.50;99.90
16823;DHT22;8528;49.976;11.858;2022-10-16T09:55:01;16.60;99.90
16823;DHT22;8528;49.976;11.858;2022-10-16T09:57:28;16.60;99.90
16823;DHT22;8528;49.976;11.858;2022-10-16T09:59:58;16.60;99.90
16823;DHT22;8528;49.976;11.858;2022-10-16T10:02:35;16.60;99.90
16823;DHT22;8528;49.976;11.858;2022-10-16T10:05:04;16.80;99.90
16823;DHT22;8528;49.976;11.858;2022-10-16T10:07:35;17.10;99.90
16823;DHT22;8528;49.976;11.858;2022-10-16T10:10:30;17.20;99.90
16823;DHT22;8528;49.976;11.858;2022-10-16T10:12:58;17.40;99.90
16823;DHT22;8528;49.976;11.858;2022-10-16T10:15:34;17.70;99.90
16823;DHT22;8528;49.976;11.858;2022-10-16T10:18:15;17.60;99.90
16823;DHT22;8528;49.976;11.858;2022-10-16T10:20:43;17.40;99.90
16823;DHT22;8528;49.976;11.858;2022-10-16T10:23:26;17.30;99.90
16823;DHT22;8528;49.976;11.858;2022-10-16T10:26:18;17.30;99.90
16823;DHT22;8528;49.976;11.858;2022-10-16T10:29:15;17.40;99.90
16823;DHT22;8528;49.976;11.858;2022-10-16T10:40:28;17.30;99.90
16823;DHT22;8528;49.976;11.858;2022-10-16T10:45:38;17.20;99.90
16823;DHT22;8528;49.976;11.858;2022-10-16T10:48:19;17.20;99.90
16823;DHT22;8528;49.976;11.858;2022-10-16T10:50:54;17.10;99.90
16823;DHT22;8528;49.976;11.858;2022-10-16T10:53:31;17.00;99.90
16823;DHT22;8528;49.976;11.858;2022-10-16T11:01:48;17.10;99.90
16823;DHT22;8528;49.976;11.858;2022-10-16T11:04:34;17.20;99.90
16823;DHT22;8528;49.976;11.858;2022-10-16T11:07:18;17.30;99.90
16823;DHT22;8528;49.976;11.858;2022-10-16T11:10:03;17.30;99.90
16823;DHT22;8528;49.976;11.858;2022-10-16T11:12:46;17.30;99.90
16823;DHT22;8528;49.976;11.858;2022-10-16T11:15:21;17.40;99.90
16823;DHT22;8528;49.976;11.858;2022-10-16T11:18:11;17.60;99.90
16823;DHT22;8528;49.976;11.858;2022-10-16T11:21:06;17.50;99.90
16823;DHT22;8528;49.976;11.858;2022-10-16T11:24:03;17.60;99.90
16823;DHT22;8528;49.976;11.858;2022-10-16T11:26:34;17.80;99.90
16823;DHT22;8528;49.976;11.858;2022-10-16T11:29:04;17.90;99.90
16823;DHT22;8528;49.976;11.858;2022-10-16T11:45:24;17.90;99.90
16823;DHT22;8528;49.976;11.858;2022-10-16T11:53:43;18.40;99.90
16823;DHT22;8528;49.976;11.858;2022-10-16T11:56:15;18.40;99.90
16823;DHT22;8528;49.976;11.858;2022-10-16T11:59:12;18.50;99.90
16823;DHT22;8528;49.976;11.858;2022-10-16T12:01:49;18.60;99.90
16823;DHT22;8528;49.976;11.858;2022-10-16T12:04:45;18.60;99.90
16823;DHT22;8528;49.976;11.858;2022-10-16T12:07:17;18.70;99.90
16823;DHT22;8528;49.976;11.858;2022-10-16T12:09:46;18.80;99.90
16823;DHT22;8528;49.976;11.858;2022-10-16T12:12:38;18.80;99.90
16823;DHT22;8528;49.976;11.858;2022-10-16T12:15:20;18.90;99.90
16823;DHT22;8528;49.976;11.858;2022-10-16T12:18:23;19.00;99.90
16823;DHT22;8528;49.976;11.858;2022-10-16T12:20:58;19.10;99.90
16823;DHT22;8528;49.976;11.858;2022-10-16T12:23:37;19.10;99.90
16823;DHT22;8528;49.976;11.858;2022-10-16T12:26:05;19.10;99.90
16823;DHT22;8528;49.976;11.858;2022-10-16T12:28:34;19.10;99.90
16823;DHT22;8528;49.976;11.858;2022-10-16T12:31:06;19.00;99.90
16823;DHT22;8528;49.976;11.858;2022-10-16T12:34:02;19.00;99.90
16823;DHT22;8528;49.976;11.858;2022-10-16T12:36:32;19.10;99.90
16823;DHT22;8528;49.976;11.858;2022-10-16T12:39:01;19.20;99.90
16823;DHT22;8528;49.976;11.858;2022-10-16T12:41:35;19.30;99.90
16823;DHT22;8528;49.976;11.858;2022-10-16T12:44:04;19.60;99.90
16823;DHT22;8528;49.976;11.858;2022-10-16T12:51:40;19.90;99.90
16823;DHT22;8528;49.976;11.858;2022-10-16T13:30:26;19.60;99.90
16823;DHT22;8528;49.976;11.858;2022-10-16T13:33:07;19.90;99.90
16823;DHT22;8528;49.976;11.858;2022-10-16T13:35:48;20.00;99.90
16823;DHT22;8528;49.976;11.858;2022-10-16T13:38:21;19.90;99.90
16823;DHT22;8528;49.976;11.858;2022-10-16T13:40:54;19.90;99.90
16823;DHT22;8528;49.976;11.858;2022-10-16T13:43:50;19.60;99.90
16823;DHT22;8528;49.976;11.858;2022-10-16T13:46:21;19.40;99.90
16823;DHT22;8528;49.976;11.858;2022-10-16T13:49:02;19.40;99.90
16823;DHT22;8528;49.976;11.858;2022-10-16T13:51:30;19.30;99.90
16823;DHT22;8528;49.976;11.858;2022-10-16T13:53:57;19.20;99.90
16823;DHT22;8528;49.976;11.858;2022-10-16T13:56:30;19.10;99.90
16823;DHT22;8528;49.976;11.858;2022-10-16T13:59:02;18.90;99.90
16823;DHT22;8528;49.976;11.858;2022-10-16T14:01:40;18.80;99.90
16823;DHT22;8528;49.976;11.858;2022-10-16T14:04:10;18.70;99.90
16823;DHT22;8528;49.976;11.858;2022-10-16T14:06:41;18.80;99.90
16823;DHT22;8528;49.976;11.858;2022-10-16T14:09:28;18.80;99.90
16823;DHT22;8528;49.976;11.858;2022-10-16T14:12:01;18.60;99.90
16823;DHT22;8528;49.976;11.858;2022-10-16T14:14:35;18.70;99.90
16823;DHT22;8528;49.976;11.858;2022-10-16T14:17:06;18.70;99.90
16823;DHT22;8528;49.976;11.858;2022-10-16T14:19:40;18.60;99.90
16823;DHT22;8528;49.976;11.858;2022-10-16T14:22:33;18.50;99.90
16823;DHT22;8528;49.976;11.858;2022-10-16T14:27:58;18.40;99.90
16823;DHT22;8528;49.976;11.858;2022-10-16T14:30:34;18.40;99.90
16823;DHT22;8528;49.976;11.858;2022-10-16T14:33:06;18.40;99.90
16823;DHT22;8528;49.976;11.858;2022-10-16T14:35:44;18.40;99.90
16823;DHT22;8528;49.976;11.858;2022-10-16T14:38:19;18.30;99.90
16823;DHT22;8528;49.976;11.858;2022-10-16T14:40:48;18.30;99.90
16823;DHT22;8528;49.976;11.858;2022-10-16T14:43:22;18.20;99.90
16823;DHT22;8528;49.976;11.858;2022-10-16T14:45:55;18.10;99.90
16823;DHT22;8528;49.976;11.858;2022-10-16T14:48:22;18.00;99.90
16823;DHT22;8528;49.976;11.858;2022-10-16T14:50:50;18.00;99.90
16823;DHT22;8528;49.976;11.858;2022-10-16T14:53:17;18.00;99.90
16823;DHT22;8528;49.976;11.858;2022-10-16T14:55:44;17.90;99.90
16823;DHT22;8528;49.976;11.858;2022-10-16T14:58:20;17.90;99.90
16823;DHT22;8528;49.976;11.858;2022-10-16T15:00:48;17.90;99.90
16823;DHT22;8528;49.976;11.858;2022-10-16T15:03:15;17.80;99.90
16823;DHT22;8528;49.976;11.858;2022-10-16T15:05:42;17.80;99.90
16823;DHT22;8528;49.976;11.858;2022-10-16T15:08:09;17.80;99.90
16823;DHT22;8528;49.976;11.858;2022-10-16T15:10:39;17.70;99.90
16823;DHT22;8528;49.976;11.858;2022-10-16T15:13:11;17.70;99.90
16823;DHT22;8528;49.976;11.858;2022-10-16T15:15:44;17.80;99.90
16823;DHT22;8528;49.976;11.858;2022-10-16T15:18:11;17.80;99.90
16823;DHT22;8528;49.976;11.858;2022-10-16T15:20:39;17.80;99.90
16823;DHT22;8528;49.976;11.858;2022-10-16T15:23:20;17.70;99.90
16823;DHT22;8528;49.976;11.858;2022-10-16T15:25:51;17.70;99.90
16823;DHT22;8528;49.976;11.858;2022-10-16T15:28:21;17.70;99.90
16823;DHT22;8528;49.976;11.858;2022-10-16T15:30:51;17.60;99.90
16823;DHT22;8528;49.976;11.858;2022-10-16T15:33:23;17.50;99.90
16823;DHT22;8528;49.976;11.858;2022-10-16T15:35:51;17.40;99.90
16823;DHT22;8528;49.976;11.858;2022-10-16T15:38:20;17.30;99.90
16823;DHT22;8528;49.976;11.858;2022-10-16T15:40:48;17.20;99.90
16823;DHT22;8528;49.976;11.858;2022-10-16T15:43:16;17.10;99.90
16823;DHT22;8528;49.976;11.858;2022-10-16T15:46:04;16.90;99.90
16823;DHT22;8528;49.976;11.858;2022-10-16T15:48:33;16.60;99.90
16823;DHT22;8528;49.976;11.858;2022-10-16T15:51:07;16.40;99.90
16823;DHT22;8528;49.976;11.858;2022-10-16T15:53:35;16.20;99.90
16823;DHT22;8528;49.976;11.858;2022-10-16T15:56:03;16.10;99.90
16823;DHT22;8528;49.976;11.858;2022-10-16T15:58:30;15.90;99.90
16823;DHT22;8528;49.976;11.858;2022-10-16T16:00:58;15.80;99.90
16823;DHT22;8528;49.976;11.858;2022-10-16T16:03:29;15.60;99.90
16823;DHT22;8528;49.976;11.858;2022-10-16T16:05:55;15.40;99.90
16823;DHT22;8528;49.976;11.858;2022-10-16T16:08:23;15.40;99.90
16823;DHT22;8528;49.976;11.858;2022-10-16T16:11:25;15.30;99.90
16823;DHT22;8528;49.976;11.858;2022-10-16T16:13:52;15.20;99.90
16823;DHT22;8528;49.976;11.858;2022-10-16T16:16:21;15.10;99.90
16823;DHT22;8528;49.976;11.858;2022-10-16T16:19:07;15.00;99.90
16823;DHT22;8528;49.976;11.858;2022-10-16T16:21:37;14.80;99.90
16823;DHT22;8528;49.976;11.858;2022-10-16T16:24:06;14.70;99.90
16823;DHT22;8528;49.976;11.858;2022-10-16T16:26:35;14.50;99.90
16823;DHT22;8528;49.976;11.858;2022-10-16T16:29:06;14.40;99.90
16823;DHT22;8528;49.976;11.858;2022-10-16T16:31:36;14.30;99.90
16823;DHT22;8528;49.976;11.858;2022-10-16T16:34:04;14.30;99.90
16823;DHT22;8528;49.976;11.858;2022-10-16T16:36:33;14.20;99.90
16823;DHT22;8528;49.976;11.858;2022-10-16T16:39:00;14.30;99.90
16823;DHT22;8528;49.976;11.858;2022-10-16T16:41:29;14.30;99.90
16823;DHT22;8528;49.976;11.858;2022-10-16T16:44:06;14.20;99.90
16823;DHT22;8528;49.976;11.858;2022-10-16T16:46:34;14.20;99.90
16823;DHT22;8528;49.976;11.858;2022-10-16T16:49:01;14.10;99.90
16823;DHT22;8528;49.976;11.858;2022-10-16T16:51:28;14.00;99.90
16823;DHT22;8528;49.976;11.858;2022-10-16T16:54:01;14.00;99.90
16823;DHT22;8528;49.976;11.858;2022-10-16T16:56:28;13.90;99.90
16823;DHT22;8528;49.976;11.858;2022-10-16T16:58:56;13.80;99.90
16823;DHT22;8528;49.976;11.858;2022-10-16T17:01:25;13.80;99.90
16823;DHT22;8528;49.976;11.858;2022-10-16T17:03:55;13.70;99.90
16823;DHT22;8528;49.976;11.858;2022-10-16T17:06:24;13.70;99.90
16823;DHT22;8528;49.976;11.858;2022-10-16T17:08:52;13.80;99.90
16823;DHT22;8528;49.976;11.858;2022-10-16T17:11:21;13.70;99.90
16823;DHT22;8528;49.976;11.858;2022-10-16T17:13:49;13.70;99.90
16823;DHT22;8528;49.976;11.858;2022-10-16T17:16:24;13.70;99.90
16823;DHT22;8528;49.976;11.858;2022-10-16T17:18:52;13.60;99.90
16823;DHT22;8528;49.976;11.858;2022-10-16T17:21:19;13.60;99.90
16823;DHT22;8528;49.976;11.858;2022-10-16T17:23:46;13.60;99.90
16823;DHT22;8528;49.976;11.858;2022-10-16T17:26:15;13.60;99.90
16823;DHT22;8528;49.976;11.858;2022-10-16T17:28:43;13.50;99.90
16823;DHT22;8528;49.976;11.858;2022-10-16T17:31:19;13.60;99.90
16823;DHT22;8528;49.976;11.858;2022-10-16T17:33:46;13.50;99.90
16823;DHT22;8528;49.976;11.858;2022-10-16T17:36:13;13.50;99.90
16823;DHT22;8528;49.976;11.858;2022-10-16T17:38:43;13.50;99.90
16823;DHT22;8528;49.976;11.858;2022-10-16T17:41:21;13.50;99.90
16823;DHT22;8528;49.976;11.858;2022-10-16T17:43:49;13.50;99.90
16823;DHT22;8528;49.976;11.858;2022-10-16T17:46:19;13.50;99.90
16823;DHT22;8528;49.976;11.858;2022-10-16T17:48:50;13.50;99.90
16823;DHT22;8528;49.976;11.858;2022-10-16T17:51:20;13.50;99.90
16823;DHT22;8528;49.976;11.858;2022-10-16T17:53:48;13.60;99.90
16823;DHT22;8528;49.976;11.858;2022-10-16T17:56:17;13.50;99.90
16823;DHT22;8528;49.976;11.858;2022-10-16T17:58:48;13.60;99.90
16823;DHT22;8528;49.976;11.858;2022-10-16T18:01:22;13.60;99.90
16823;DHT22;8528;49.976;11.858;2022-10-16T18:04:11;13.60;99.90
16823;DHT22;8528;49.976;11.858;2022-10-16T18:06:41;13.50;99.90
16823;DHT22;8528;49.976;11.858;2022-10-16T18:09:13;13.50;99.90
16823;DHT22;8528;49.976;11.858;2022-10-16T18:11:42;13.50;99.90
16823;DHT22;8528;49.976;11.858;2022-10-16T18:14:12;13.50;99.90
16823;DHT22;8528;49.976;11.858;2022-10-16T18:16:39;13.50;99.90
16823;DHT22;8528;49.976;11.858;2022-10-16T18:19:06;13.50;99.90
16823;DHT22;8528;49.976;11.858;2022-10-16T18:21:33;13.50;99.90
16823;DHT22;8528;49.976;11.858;2022-10-16T18:24:00;13.50;99.90
16823;DHT22;8528;49.976;11.858;2022-10-16T18:26:28;13.50;99.90
16823;DHT22;8528;49.976;11.858;2022-10-16T18:28:56;13.50;99.90
16823;DHT22;8528;49.976;11.858;2022-10-16T18:31:24;13.50;99.90
16823;DHT22;8528;49.976;11.858;2022-10-16T18:33:52;13.50;99.90
16823;DHT22;8528;49.976;11.858;2022-10-16T18:36:22;13.50;99.90
16823;DHT22;8528;49.976;11.858;2022-10-16T18:38:49;13.50;99.90
16823;DHT22;8528;49.976;11.858;2022-10-16T18:41:16;13.50;99.90
16823;DHT22;8528;49.976;11.858;2022-10-16T18:43:47;13.50;99.90
16823;DHT22;8528;49.976;11.858;2022-10-16T18:46:16;13.40;99.90